sensor_id;sensor_type;location;lat;lon;timestamp;P1;durP1;ratioP1;P2;durP2;ratioP2
75890;SDS011;64571;47.512;19.054;2024-03-02T00:01:40;38.83;;;20.02;;
75890;SDS011;64571;47.512;19.054;2024-03-02T00:04:44;42.45;;;20.17;;
75890;SDS011;64571;47.512;19.054;2024-03-02T00:07:54;35.17;;;20.08;;
75890;SDS011;64571;47.512;19.054;2024-03-02T00:11:00;41.33;;;19.87;;
75890;SDS011;64571;47.512;19.054;2024-03-02T00:14:06;36.90;;;21.08;;
75890;SDS011;64571;47.512;19.054;2024-03-02T00:17:12;35.58;;;20.17;;
75890;SDS011;64571;47.512;19.054;2024-03-02T00:20:23;39.88;;;20.88;;
75890;SDS011;64571;47.512;19.054;2024-03-02T00:23:27;36.50;;;19.27;;
75890;SDS011;64571;47.512;19.054;2024-03-02T00:26:31;36.17;;;19.60;;
75890;SDS011;64571;47.512;19.054;2024-03-02T00:29:34;36.17;;;20.33;;
75890;SDS011;64571;47.512;19.054;2024-03-02T00:32:37;36.33;;;19.15;;
75890;SDS011;64571;47.512;19.054;2024-03-02T00:35:40;36.65;;;19.50;;
75890;SDS011;64571;47.512;19.054;2024-03-02T00:38:46;37.10;;;21.15;;
75890;SDS011;64571;47.512;19.054;2024-03-02T00:41:49;44.63;;;22.30;;
75890;SDS011;64571;47.512;19.054;2024-03-02T00:44:51;40.20;;;22.55;;
75890;SDS011;64571;47.512;19.054;2024-03-02T00:47:54;36.75;;;21.17;;
75890;SDS011;64571;47.512;19.054;2024-03-02T00:50:57;35.45;;;18.25;;
75890;SDS011;64571;47.512;19.054;2024-03-02T00:54:01;32.30;;;19.15;;
75890;SDS011;64571;47.512;19.054;2024-03-02T00:57:07;42.53;;;21.37;;
75890;SDS011;64571;47.512;19.054;2024-03-02T01:00:14;40.08;;;21.50;;
75890;SDS011;64571;47.512;19.054;2024-03-02T01:03:19;39.63;;;21.75;;
75890;SDS011;64571;47.512;19.054;2024-03-02T01:06:22;39.17;;;20.25;;
75890;SDS011;64571;47.512;19.054;2024-03-02T01:09:25;40.85;;;21.40;;
75890;SDS011;64571;47.512;19.054;2024-03-02T01:12:28;39.23;;;20.93;;
75890;SDS011;64571;47.512;19.054;2024-03-02T01:15:30;35.08;;;20.50;;
75890;SDS011;64571;47.512;19.054;2024-03-02T01:18:33;36.97;;;20.08;;
75890;SDS011;64571;47.512;19.054;2024-03-02T01:21:36;35.88;;;19.58;;
75890;SDS011;64571;47.512;19.054;2024-03-02T01:24:38;37.50;;;19.77;;
75890;SDS011;64571;47.512;19.054;2024-03-02T01:27:41;36.13;;;19.50;;
75890;SDS011;64571;47.512;19.054;2024-03-02T01:30:44;36.00;;;18.12;;
75890;SDS011;64571;47.512;19.054;2024-03-02T01:33:47;32.45;;;17.45;;
75890;SDS011;64571;47.512;19.054;2024-03-02T01:36:50;36.45;;;19.60;;
75890;SDS011;64571;47.512;19.054;2024-03-02T01:39:52;34.30;;;18.17;;
75890;SDS011;64571;47.512;19.054;2024-03-02T01:42:55;33.00;;;16.50;;
75890;SDS011;64571;47.512;19.054;2024-03-02T01:46:00;33.40;;;18.30;;
75890;SDS011;64571;47.512;19.054;2024-03-02T01:49:02;34.17;;;19.23;;
75890;SDS011;64571;47.512;19.054;2024-03-02T01:52:06;38.90;;;19.48;;
75890;SDS011;64571;47.512;19.054;2024-03-02T01:55:09;35.67;;;20.30;;
75890;SDS011;64571;47.512;19.054;2024-03-02T01:58:13;36.20;;;20.53;;
75890;SDS011;64571;47.512;19.054;2024-03-02T02:01:16;32.30;;;18.75;;
75890;SDS011;64571;47.512;19.054;2024-03-02T02:04:19;32.60;;;16.73;;
75890;SDS011;64571;47.512;19.054;2024-03-02T02:07:24;31.85;;;16.87;;
75890;SDS011;64571;47.512;19.054;2024-03-02T02:10:27;35.72;;;17.27;;
75890;SDS011;64571;47.512;19.054;2024-03-02T02:13:30;33.33;;;16.53;;
75890;SDS011;64571;47.512;19.054;2024-03-02T02:16:32;31.98;;;17.33;;
75890;SDS011;64571;47.512;19.054;2024-03-02T02:19:35;33.00;;;17.95;;
75890;SDS011;64571;47.512;19.054;2024-03-02T02:22:37;38.05;;;18.77;;
75890;SDS011;64571;47.512;19.054;2024-03-02T02:25:40;34.70;;;18.67;;
75890;SDS011;64571;47.512;19.054;2024-03-02T02:28:42;34.33;;;16.90;;
75890;SDS011;64571;47.512;19.054;2024-03-02T02:31:49;32.00;;;17.15;;
75890;SDS011;64571;47.512;19.054;2024-03-02T02:34:54;33.72;;;17.27;;
75890;SDS011;64571;47.512;19.054;2024-03-02T02:37:57;36.55;;;17.85;;
75890;SDS011;64571;47.512;19.054;2024-03-02T02:41:01;32.30;;;17.67;;
75890;SDS011;64571;47.512;19.054;2024-03-02T02:44:03;36.90;;;17.23;;
75890;SDS011;64571;47.512;19.054;2024-03-02T02:47:06;36.08;;;17.77;;
75890;SDS011;64571;47.512;19.054;2024-03-02T02:50:08;34.35;;;17.85;;
75890;SDS011;64571;47.512;19.054;2024-03-02T02:53:12;33.97;;;17.50;;
75890;SDS011;64571;47.512;19.054;2024-03-02T02:56:14;33.67;;;17.27;;
75890;SDS011;64571;47.512;19.054;2024-03-02T02:59:17;33.23;;;17.37;;
75890;SDS011;64571;47.512;19.054;2024-03-02T03:02:19;33.65;;;18.42;;
75890;SDS011;64571;47.512;19.054;2024-03-02T03:05:22;38.88;;;20.23;;
75890;SDS011;64571;47.512;19.054;2024-03-02T03:08:24;36.92;;;19.23;;
75890;SDS011;64571;47.512;19.054;2024-03-02T03:11:27;36.78;;;19.77;;
75890;SDS011;64571;47.512;19.054;2024-03-02T03:14:30;39.77;;;22.03;;
75890;SDS011;64571;47.512;19.054;2024-03-02T03:17:32;39.38;;;20.20;;
75890;SDS011;64571;47.512;19.054;2024-03-02T03:20:35;37.38;;;20.30;;
75890;SDS011;64571;47.512;19.054;2024-03-02T03:23:38;44.28;;;21.10;;
75890;SDS011;64571;47.512;19.054;2024-03-02T03:26:40;35.80;;;19.30;;
75890;SDS011;64571;47.512;19.054;2024-03-02T03:29:43;35.13;;;17.90;;
75890;SDS011;64571;47.512;19.054;2024-03-02T03:32:45;36.17;;;17.02;;
75890;SDS011;64571;47.512;19.054;2024-03-02T03:35:50;33.05;;;17.27;;
75890;SDS011;64571;47.512;19.054;2024-03-02T03:38:52;32.60;;;17.50;;
75890;SDS011;64571;47.512;19.054;2024-03-02T03:41:55;34.22;;;15.57;;
75890;SDS011;64571;47.512;19.054;2024-03-02T03:44:57;37.93;;;16.43;;
75890;SDS011;64571;47.512;19.054;2024-03-02T03:48:00;33.35;;;15.65;;
75890;SDS011;64571;47.512;19.054;2024-03-02T03:51:02;33.75;;;17.35;;
75890;SDS011;64571;47.512;19.054;2024-03-02T03:54:05;36.75;;;16.33;;
75890;SDS011;64571;47.512;19.054;2024-03-02T03:57:08;31.87;;;15.32;;
75890;SDS011;64571;47.512;19.054;2024-03-02T04:00:11;35.43;;;17.33;;
75890;SDS011;64571;47.512;19.054;2024-03-02T04:03:14;33.70;;;17.27;;
75890;SDS011;64571;47.512;19.054;2024-03-02T04:06:16;30.70;;;15.35;;
75890;SDS011;64571;47.512;19.054;2024-03-02T04:09:19;33.60;;;17.33;;
75890;SDS011;64571;47.512;19.054;2024-03-02T04:12:22;31.17;;;16.92;;
75890;SDS011;64571;47.512;19.054;2024-03-02T04:15:25;36.27;;;16.27;;
75890;SDS011;64571;47.512;19.054;2024-03-02T04:18:27;32.78;;;16.55;;
75890;SDS011;64571;47.512;19.054;2024-03-02T04:21:30;33.42;;;17.05;;
75890;SDS011;64571;47.512;19.054;2024-03-02T04:24:33;32.80;;;17.17;;
75890;SDS011;64571;47.512;19.054;2024-03-02T04:27:35;35.97;;;18.05;;
75890;SDS011;64571;47.512;19.054;2024-03-02T04:30:38;30.53;;;16.67;;
75890;SDS011;64571;47.512;19.054;2024-03-02T04:33:41;37.30;;;19.35;;
75890;SDS011;64571;47.512;19.054;2024-03-02T04:36:43;36.20;;;18.80;;
75890;SDS011;64571;47.512;19.054;2024-03-02T04:39:46;32.80;;;17.40;;
75890;SDS011;64571;47.512;19.054;2024-03-02T04:42:48;36.15;;;18.05;;
75890;SDS011;64571;47.512;19.054;2024-03-02T04:45:51;33.70;;;16.93;;
75890;SDS011;64571;47.512;19.054;2024-03-02T04:48:53;37.67;;;17.95;;
75890;SDS011;64571;47.512;19.054;2024-03-02T04:51:59;39.95;;;19.77;;
75890;SDS011;64571;47.512;19.054;2024-03-02T04:55:02;37.70;;;18.92;;
75890;SDS011;64571;47.512;19.054;2024-03-02T04:58:12;37.72;;;18.25;;
75890;SDS011;64571;47.512;19.054;2024-03-02T05:01:14;36.80;;;17.83;;
75890;SDS011;64571;47.512;19.054;2024-03-02T05:04:19;35.65;;;17.77;;
75890;SDS011;64571;47.512;19.054;2024-03-02T05:07:21;39.72;;;17.35;;
75890;SDS011;64571;47.512;19.054;2024-03-02T05:10:24;37.38;;;18.87;;
75890;SDS011;64571;47.512;19.054;2024-03-02T05:13:27;40.05;;;18.70;;
75890;SDS011;64571;47.512;19.054;2024-03-02T05:16:32;38.27;;;17.93;;
75890;SDS011;64571;47.512;19.054;2024-03-02T05:19:36;37.13;;;18.75;;
75890;SDS011;64571;47.512;19.054;2024-03-02T05:22:38;37.88;;;19.48;;
75890;SDS011;64571;47.512;19.054;2024-03-02T05:25:41;36.90;;;18.00;;
75890;SDS011;64571;47.512;19.054;2024-03-02T05:28:44;36.70;;;20.45;;
75890;SDS011;64571;47.512;19.054;2024-03-02T05:31:47;35.83;;;19.53;;
75890;SDS011;64571;47.512;19.054;2024-03-02T05:34:50;42.33;;;19.00;;
75890;SDS011;64571;47.512;19.054;2024-03-02T05:37:52;37.08;;;18.33;;
75890;SDS011;64571;47.512;19.054;2024-03-02T05:40:55;35.50;;;18.12;;
75890;SDS011;64571;47.512;19.054;2024-03-02T05:43:58;38.05;;;19.42;;
75890;SDS011;64571;47.512;19.054;2024-03-02T05:47:01;37.27;;;17.50;;
75890;SDS011;64571;47.512;19.054;2024-03-02T05:50:03;37.25;;;18.20;;
75890;SDS011;64571;47.512;19.054;2024-03-02T05:53:06;36.53;;;17.85;;
75890;SDS011;64571;47.512;19.054;2024-03-02T05:56:09;35.00;;;18.05;;
75890;SDS011;64571;47.512;19.054;2024-03-02T05:59:12;36.03;;;18.90;;
75890;SDS011;64571;47.512;19.054;2024-03-02T06:02:15;41.60;;;19.03;;
75890;SDS011;64571;47.512;19.054;2024-03-02T06:05:18;38.65;;;19.60;;
75890;SDS011;64571;47.512;19.054;2024-03-02T06:08:21;35.70;;;18.62;;
75890;SDS011;64571;47.512;19.054;2024-03-02T06:11:23;41.13;;;19.80;;
75890;SDS011;64571;47.512;19.054;2024-03-02T06:14:26;37.85;;;19.27;;
75890;SDS011;64571;47.512;19.054;2024-03-02T06:17:30;42.60;;;19.97;;
75890;SDS011;64571;47.512;19.054;2024-03-02T06:20:33;39.03;;;20.35;;
75890;SDS011;64571;47.512;19.054;2024-03-02T06:23:41;37.92;;;20.05;;
75890;SDS011;64571;47.512;19.054;2024-03-02T06:26:43;44.47;;;20.33;;
75890;SDS011;64571;47.512;19.054;2024-03-02T06:29:46;41.95;;;20.58;;
75890;SDS011;64571;47.512;19.054;2024-03-02T06:32:48;42.60;;;20.73;;
75890;SDS011;64571;47.512;19.054;2024-03-02T06:35:51;40.12;;;19.58;;
75890;SDS011;64571;47.512;19.054;2024-03-02T06:38:53;39.53;;;19.65;;
75890;SDS011;64571;47.512;19.054;2024-03-02T06:41:56;43.47;;;20.80;;
75890;SDS011;64571;47.512;19.054;2024-03-02T06:44:59;39.85;;;20.05;;
75890;SDS011;64571;47.512;19.054;2024-03-02T06:48:02;41.50;;;20.40;;
75890;SDS011;64571;47.512;19.054;2024-03-02T06:51:04;40.83;;;20.58;;
75890;SDS011;64571;47.512;19.054;2024-03-02T06:54:07;38.30;;;19.60;;
75890;SDS011;64571;47.512;19.054;2024-03-02T06:57:09;40.45;;;19.40;;
75890;SDS011;64571;47.512;19.054;2024-03-02T07:00:12;36.40;;;19.65;;
75890;SDS011;64571;47.512;19.054;2024-03-02T07:03:16;40.87;;;18.93;;
75890;SDS011;64571;47.512;19.054;2024-03-02T07:06:18;41.55;;;20.83;;
75890;SDS011;64571;47.512;19.054;2024-03-02T07:09:21;39.47;;;18.48;;
75890;SDS011;64571;47.512;19.054;2024-03-02T07:12:27;38.20;;;19.95;;
75890;SDS011;64571;47.512;19.054;2024-03-02T07:15:29;36.45;;;19.37;;
75890;SDS011;64571;47.512;19.054;2024-03-02T07:18:47;42.80;;;19.50;;
75890;SDS011;64571;47.512;19.054;2024-03-02T07:21:54;39.55;;;20.45;;
75890;SDS011;64571;47.512;19.054;2024-03-02T07:24:57;41.22;;;20.30;;
75890;SDS011;64571;47.512;19.054;2024-03-02T07:27:59;41.72;;;20.73;;
75890;SDS011;64571;47.512;19.054;2024-03-02T07:31:02;38.60;;;19.95;;
75890;SDS011;64571;47.512;19.054;2024-03-02T07:34:06;36.50;;;18.73;;
75890;SDS011;64571;47.512;19.054;2024-03-02T07:37:09;36.50;;;20.02;;
75890;SDS011;64571;47.512;19.054;2024-03-02T07:40:12;40.88;;;19.62;;
75890;SDS011;64571;47.512;19.054;2024-03-02T07:43:15;36.60;;;18.62;;
75890;SDS011;64571;47.512;19.054;2024-03-02T07:46:17;37.20;;;20.00;;
75890;SDS011;64571;47.512;19.054;2024-03-02T07:49:20;37.77;;;19.80;;
75890;SDS011;64571;47.512;19.054;2024-03-02T07:52:23;36.88;;;20.05;;
75890;SDS011;64571;47.512;19.054;2024-03-02T07:55:25;43.20;;;22.17;;
75890;SDS011;64571;47.512;19.054;2024-03-02T07:58:28;41.70;;;19.50;;
75890;SDS011;64571;47.512;19.054;2024-03-02T08:01:32;40.95;;;20.37;;
75890;SDS011;64571;47.512;19.054;2024-03-02T08:04:35;40.53;;;20.63;;
75890;SDS011;64571;47.512;19.054;2024-03-02T08:07:39;38.83;;;19.73;;
75890;SDS011;64571;47.512;19.054;2024-03-02T08:10:41;40.35;;;20.60;;
75890;SDS011;64571;47.512;19.054;2024-03-02T08:13:44;39.08;;;21.17;;
75890;SDS011;64571;47.512;19.054;2024-03-02T08:16:46;37.60;;;21.25;;
75890;SDS011;64571;47.512;19.054;2024-03-02T08:19:49;41.97;;;20.53;;
75890;SDS011;64571;47.512;19.054;2024-03-02T08:22:51;42.58;;;20.30;;
75890;SDS011;64571;47.512;19.054;2024-03-02T08:25:57;38.92;;;20.08;;
75890;SDS011;64571;47.512;19.054;2024-03-02T08:29:00;40.17;;;21.73;;
75890;SDS011;64571;47.512;19.054;2024-03-02T08:32:05;37.15;;;19.23;;
75890;SDS011;64571;47.512;19.054;2024-03-02T08:35:08;38.27;;;21.23;;
75890;SDS011;64571;47.512;19.054;2024-03-02T08:38:10;38.30;;;20.83;;
75890;SDS011;64571;47.512;19.054;2024-03-02T08:41:13;39.20;;;20.35;;
75890;SDS011;64571;47.512;19.054;2024-03-02T08:44:20;37.13;;;19.10;;
75890;SDS011;64571;47.512;19.054;2024-03-02T08:47:24;36.88;;;20.08;;
75890;SDS011;64571;47.512;19.054;2024-03-02T08:50:26;40.07;;;19.03;;
75890;SDS011;64571;47.512;19.054;2024-03-02T08:53:29;44.42;;;22.25;;
75890;SDS011;64571;47.512;19.054;2024-03-02T08:56:31;37.13;;;20.88;;
75890;SDS011;64571;47.512;19.054;2024-03-02T08:59:34;34.88;;;19.87;;
75890;SDS011;64571;47.512;19.054;2024-03-02T09:02:36;33.78;;;18.37;;
75890;SDS011;64571;47.512;19.054;2024-03-02T09:05:39;38.53;;;19.93;;
75890;SDS011;64571;47.512;19.054;2024-03-02T09:08:43;36.03;;;19.02;;
75890;SDS011;64571;47.512;19.054;2024-03-02T09:11:46;34.38;;;19.20;;
75890;SDS011;64571;47.512;19.054;2024-03-02T09:14:49;33.80;;;18.98;;
75890;SDS011;64571;47.512;19.054;2024-03-02T09:17:51;35.50;;;18.00;;
75890;SDS011;64571;47.512;19.054;2024-03-02T09:20:54;35.00;;;18.67;;
75890;SDS011;64571;47.512;19.054;2024-03-02T09:23:57;36.30;;;18.67;;
75890;SDS011;64571;47.512;19.054;2024-03-02T09:27:00;29.48;;;16.67;;
75890;SDS011;64571;47.512;19.054;2024-03-02T09:30:04;32.33;;;17.30;;
75890;SDS011;64571;47.512;19.054;2024-03-02T09:33:09;29.60;;;16.75;;
75890;SDS011;64571;47.512;19.054;2024-03-02T09:36:19;30.23;;;16.67;;
75890;SDS011;64571;47.512;19.054;2024-03-02T09:39:22;30.90;;;17.27;;
75890;SDS011;64571;47.512;19.054;2024-03-02T09:42:25;31.20;;;15.60;;
75890;SDS011;64571;47.512;19.054;2024-03-02T09:45:28;28.40;;;16.77;;
75890;SDS011;64571;47.512;19.054;2024-03-02T09:48:32;28.48;;;16.30;;
75890;SDS011;64571;47.512;19.054;2024-03-02T09:51:35;24.87;;;14.47;;
75890;SDS011;64571;47.512;19.054;2024-03-02T09:54:39;29.42;;;15.75;;
75890;SDS011;64571;47.512;19.054;2024-03-02T09:57:42;29.08;;;16.58;;
75890;SDS011;64571;47.512;19.054;2024-03-02T10:00:44;26.00;;;14.15;;
75890;SDS011;64571;47.512;19.054;2024-03-02T10:03:47;27.45;;;14.90;;
75890;SDS011;64571;47.512;19.054;2024-03-02T10:07:09;28.40;;;14.23;;
75890;SDS011;64571;47.512;19.054;2024-03-02T10:10:19;25.75;;;14.50;;
75890;SDS011;64571;47.512;19.054;2024-03-02T10:13:22;26.45;;;13.57;;
75890;SDS011;64571;47.512;19.054;2024-03-02T10:16:27;34.50;;;14.85;;
75890;SDS011;64571;47.512;19.054;2024-03-02T10:19:29;24.02;;;13.70;;
75890;SDS011;64571;47.512;19.054;2024-03-02T10:22:35;23.20;;;12.87;;
75890;SDS011;64571;47.512;19.054;2024-03-02T10:25:38;23.50;;;12.77;;
75890;SDS011;64571;47.512;19.054;2024-03-02T10:28:53;22.48;;;13.32;;
75890;SDS011;64571;47.512;19.054;2024-03-02T10:32:02;25.08;;;12.55;;
75890;SDS011;64571;47.512;19.054;2024-03-02T10:35:05;21.27;;;12.35;;
75890;SDS011;64571;47.512;19.054;2024-03-02T10:38:08;23.83;;;12.53;;
75890;SDS011;64571;47.512;19.054;2024-03-02T10:41:17;24.42;;;12.48;;
75890;SDS011;64571;47.512;19.054;2024-03-02T10:44:20;23.90;;;12.35;;
75890;SDS011;64571;47.512;19.054;2024-03-02T10:47:24;23.33;;;12.85;;
75890;SDS011;64571;47.512;19.054;2024-03-02T10:50:29;21.20;;;12.55;;
75890;SDS011;64571;47.512;19.054;2024-03-02T10:53:32;21.57;;;11.27;;
75890;SDS011;64571;47.512;19.054;2024-03-02T10:56:41;25.48;;;12.48;;
75890;SDS011;64571;47.512;19.054;2024-03-02T10:59:53;19.75;;;11.30;;
75890;SDS011;64571;47.512;19.054;2024-03-02T11:03:05;18.77;;;10.50;;
75890;SDS011;64571;47.512;19.054;2024-03-02T11:06:12;19.92;;;11.43;;
75890;SDS011;64571;47.512;19.054;2024-03-02T11:09:16;20.90;;;11.20;;
75890;SDS011;64571;47.512;19.054;2024-03-02T11:15:31;18.05;;;9.65;;
75890;SDS011;64571;47.512;19.054;2024-03-02T11:18:37;20.52;;;10.45;;
75890;SDS011;64571;47.512;19.054;2024-03-02T11:21:40;18.08;;;9.55;;
75890;SDS011;64571;47.512;19.054;2024-03-02T11:24:49;18.70;;;10.17;;
75890;SDS011;64571;47.512;19.054;2024-03-02T11:30:56;18.83;;;9.75;;
75890;SDS011;64571;47.512;19.054;2024-03-02T11:34:00;18.02;;;10.88;;
75890;SDS011;64571;47.512;19.054;2024-03-02T11:37:21;18.00;;;9.75;;
75890;SDS011;64571;47.512;19.054;2024-03-02T11:40:24;17.57;;;9.93;;
75890;SDS011;64571;47.512;19.054;2024-03-02T11:43:28;16.27;;;9.95;;
75890;SDS011;64571;47.512;19.054;2024-03-02T11:46:31;17.65;;;10.43;;
75890;SDS011;64571;47.512;19.054;2024-03-02T11:52:53;16.83;;;8.90;;
75890;SDS011;64571;47.512;19.054;2024-03-02T11:55:56;15.20;;;9.10;;
75890;SDS011;64571;47.512;19.054;2024-03-02T11:58:59;15.05;;;8.43;;
75890;SDS011;64571;47.512;19.054;2024-03-02T12:02:03;15.77;;;8.68;;
75890;SDS011;64571;47.512;19.054;2024-03-02T12:05:06;16.10;;;8.68;;
75890;SDS011;64571;47.512;19.054;2024-03-02T12:08:11;15.65;;;8.60;;
75890;SDS011;64571;47.512;19.054;2024-03-02T12:11:15;15.50;;;8.30;;
75890;SDS011;64571;47.512;19.054;2024-03-02T12:14:18;15.50;;;7.80;;
75890;SDS011;64571;47.512;19.054;2024-03-02T12:17:21;17.02;;;9.02;;
75890;SDS011;64571;47.512;19.054;2024-03-02T12:20:25;14.57;;;8.50;;
75890;SDS011;64571;47.512;19.054;2024-03-02T12:23:29;15.38;;;8.35;;
75890;SDS011;64571;47.512;19.054;2024-03-02T12:26:31;14.43;;;8.37;;
75890;SDS011;64571;47.512;19.054;2024-03-02T12:29:34;15.23;;;8.43;;
75890;SDS011;64571;47.512;19.054;2024-03-02T12:32:37;16.12;;;8.48;;
75890;SDS011;64571;47.512;19.054;2024-03-02T12:35:41;16.12;;;8.18;;
75890;SDS011;64571;47.512;19.054;2024-03-02T12:38:44;18.45;;;9.07;;
75890;SDS011;64571;47.512;19.054;2024-03-02T12:41:49;18.40;;;8.77;;
75890;SDS011;64571;47.512;19.054;2024-03-02T12:44:52;16.95;;;8.63;;
75890;SDS011;64571;47.512;19.054;2024-03-02T12:47:59;16.30;;;9.02;;
75890;SDS011;64571;47.512;19.054;2024-03-02T12:51:02;16.27;;;8.27;;
75890;SDS011;64571;47.512;19.054;2024-03-02T12:54:05;17.95;;;9.30;;
75890;SDS011;64571;47.512;19.054;2024-03-02T12:57:16;17.57;;;10.10;;
75890;SDS011;64571;47.512;19.054;2024-03-02T13:00:20;17.35;;;10.30;;
75890;SDS011;64571;47.512;19.054;2024-03-02T13:03:24;19.17;;;10.43;;
75890;SDS011;64571;47.512;19.054;2024-03-02T13:06:27;18.98;;;9.90;;
75890;SDS011;64571;47.512;19.054;2024-03-02T13:09:30;19.67;;;10.35;;
75890;SDS011;64571;47.512;19.054;2024-03-02T13:12:34;19.93;;;10.43;;
75890;SDS011;64571;47.512;19.054;2024-03-02T13:15:38;20.65;;;10.82;;
75890;SDS011;64571;47.512;19.054;2024-03-02T13:18:41;21.05;;;11.45;;
75890;SDS011;64571;47.512;19.054;2024-03-02T13:21:44;21.52;;;11.43;;
75890;SDS011;64571;47.512;19.054;2024-03-02T13:24:47;21.05;;;10.68;;
75890;SDS011;64571;47.512;19.054;2024-03-02T13:27:50;23.27;;;11.90;;
75890;SDS011;64571;47.512;19.054;2024-03-02T13:30:53;22.02;;;12.48;;
75890;SDS011;64571;47.512;19.054;2024-03-02T13:33:56;24.50;;;12.60;;
75890;SDS011;64571;47.512;19.054;2024-03-02T13:36:58;25.20;;;12.20;;
75890;SDS011;64571;47.512;19.054;2024-03-02T13:40:03;22.60;;;11.05;;
75890;SDS011;64571;47.512;19.054;2024-03-02T13:43:07;25.20;;;11.27;;
75890;SDS011;64571;47.512;19.054;2024-03-02T13:46:10;24.95;;;13.13;;
75890;SDS011;64571;47.512;19.054;2024-03-02T13:49:13;25.17;;;12.15;;
75890;SDS011;64571;47.512;19.054;2024-03-02T13:52:15;20.50;;;11.50;;
75890;SDS011;64571;47.512;19.054;2024-03-02T13:55:22;19.55;;;10.63;;
75890;SDS011;64571;47.512;19.054;2024-03-02T13:58:25;23.57;;;12.13;;
75890;SDS011;64571;47.512;19.054;2024-03-02T14:01:29;23.67;;;12.48;;
75890;SDS011;64571;47.512;19.054;2024-03-02T14:04:32;24.27;;;11.52;;
75890;SDS011;64571;47.512;19.054;2024-03-02T14:07:35;23.70;;;11.35;;
75890;SDS011;64571;47.512;19.054;2024-03-02T14:10:42;25.85;;;11.52;;
75890;SDS011;64571;47.512;19.054;2024-03-02T14:13:45;23.83;;;12.60;;
75890;SDS011;64571;47.512;19.054;2024-03-02T14:16:56;30.77;;;13.40;;
75890;SDS011;64571;47.512;19.054;2024-03-02T14:20:02;26.60;;;13.13;;
75890;SDS011;64571;47.512;19.054;2024-03-02T14:23:07;25.25;;;12.35;;
75890;SDS011;64571;47.512;19.054;2024-03-02T14:26:09;22.30;;;11.68;;
75890;SDS011;64571;47.512;19.054;2024-03-02T14:29:12;25.27;;;12.27;;
75890;SDS011;64571;47.512;19.054;2024-03-02T14:32:15;22.15;;;11.05;;
75890;SDS011;64571;47.512;19.054;2024-03-02T14:35:18;18.45;;;9.90;;
75890;SDS011;64571;47.512;19.054;2024-03-02T14:38:20;22.15;;;11.05;;
75890;SDS011;64571;47.512;19.054;2024-03-02T14:41:23;25.58;;;11.73;;
75890;SDS011;64571;47.512;19.054;2024-03-02T14:44:26;27.83;;;12.20;;
75890;SDS011;64571;47.512;19.054;2024-03-02T14:47:29;22.00;;;11.70;;
75890;SDS011;64571;47.512;19.054;2024-03-02T14:50:34;22.77;;;11.65;;
75890;SDS011;64571;47.512;19.054;2024-03-02T14:53:37;26.48;;;11.30;;
75890;SDS011;64571;47.512;19.054;2024-03-02T14:56:40;26.95;;;12.18;;
75890;SDS011;64571;47.512;19.054;2024-03-02T14:59:42;30.60;;;13.37;;
75890;SDS011;64571;47.512;19.054;2024-03-02T15:02:45;32.58;;;14.50;;
75890;SDS011;64571;47.512;19.054;2024-03-02T15:05:48;28.00;;;14.65;;
75890;SDS011;64571;47.512;19.054;2024-03-02T15:08:53;33.22;;;15.50;;
75890;SDS011;64571;47.512;19.054;2024-03-02T15:11:57;37.25;;;13.98;;
75890;SDS011;64571;47.512;19.054;2024-03-02T15:14:59;36.17;;;15.20;;
75890;SDS011;64571;47.512;19.054;2024-03-02T15:18:02;37.50;;;15.05;;
75890;SDS011;64571;47.512;19.054;2024-03-02T15:21:08;36.00;;;16.17;;
75890;SDS011;64571;47.512;19.054;2024-03-02T15:24:11;42.42;;;17.10;;
75890;SDS011;64571;47.512;19.054;2024-03-02T15:27:13;37.17;;;16.55;;
75890;SDS011;64571;47.512;19.054;2024-03-02T15:30:16;35.80;;;16.53;;
75890;SDS011;64571;47.512;19.054;2024-03-02T15:33:19;43.72;;;17.77;;
75890;SDS011;64571;47.512;19.054;2024-03-02T15:36:22;36.65;;;16.35;;
75890;SDS011;64571;47.512;19.054;2024-03-02T15:39:25;41.80;;;17.08;;
75890;SDS011;64571;47.512;19.054;2024-03-02T15:42:28;39.83;;;16.95;;
75890;SDS011;64571;47.512;19.054;2024-03-02T15:45:31;38.10;;;16.93;;
75890;SDS011;64571;47.512;19.054;2024-03-02T15:48:36;43.75;;;19.00;;
75890;SDS011;64571;47.512;19.054;2024-03-02T15:51:38;40.22;;;19.33;;
75890;SDS011;64571;47.512;19.054;2024-03-02T15:54:46;50.38;;;19.48;;
75890;SDS011;64571;47.512;19.054;2024-03-02T15:57:48;46.13;;;20.88;;
75890;SDS011;64571;47.512;19.054;2024-03-02T16:00:52;48.33;;;19.17;;
75890;SDS011;64571;47.512;19.054;2024-03-02T16:03:55;48.80;;;19.73;;
75890;SDS011;64571;47.512;19.054;2024-03-02T16:06:58;51.15;;;22.05;;
75890;SDS011;64571;47.512;19.054;2024-03-02T16:10:01;49.28;;;20.85;;
75890;SDS011;64571;47.512;19.054;2024-03-02T16:13:09;47.83;;;19.87;;
75890;SDS011;64571;47.512;19.054;2024-03-02T16:16:12;47.17;;;18.80;;
75890;SDS011;64571;47.512;19.054;2024-03-02T16:19:15;49.42;;;21.30;;
75890;SDS011;64571;47.512;19.054;2024-03-02T16:22:33;49.78;;;19.42;;
75890;SDS011;64571;47.512;19.054;2024-03-02T16:25:36;46.67;;;20.70;;
75890;SDS011;64571;47.512;19.054;2024-03-02T16:28:39;49.15;;;20.17;;
75890;SDS011;64571;47.512;19.054;2024-03-02T16:31:42;48.53;;;20.50;;
75890;SDS011;64571;47.512;19.054;2024-03-02T16:34:44;50.42;;;21.52;;
75890;SDS011;64571;47.512;19.054;2024-03-02T16:37:48;47.58;;;19.65;;
75890;SDS011;64571;47.512;19.054;2024-03-02T16:40:51;54.85;;;21.08;;
75890;SDS011;64571;47.512;19.054;2024-03-02T16:43:57;53.83;;;22.33;;
75890;SDS011;64571;47.512;19.054;2024-03-02T16:47:00;54.33;;;21.33;;
75890;SDS011;64571;47.512;19.054;2024-03-02T16:50:02;48.97;;;21.30;;
75890;SDS011;64571;47.512;19.054;2024-03-02T16:53:10;47.78;;;19.52;;
75890;SDS011;64571;47.512;19.054;2024-03-02T16:56:12;47.17;;;18.70;;
75890;SDS011;64571;47.512;19.054;2024-03-02T16:59:15;42.42;;;19.87;;
75890;SDS011;64571;47.512;19.054;2024-03-02T17:02:17;44.93;;;18.70;;
75890;SDS011;64571;47.512;19.054;2024-03-02T17:05:22;44.45;;;17.90;;
75890;SDS011;64571;47.512;19.054;2024-03-02T17:08:24;37.53;;;17.85;;
75890;SDS011;64571;47.512;19.054;2024-03-02T17:11:28;41.25;;;18.27;;
75890;SDS011;64571;47.512;19.054;2024-03-02T17:14:33;37.65;;;17.67;;
75890;SDS011;64571;47.512;19.054;2024-03-02T17:17:35;33.50;;;16.03;;
75890;SDS011;64571;47.512;19.054;2024-03-02T17:20:38;32.40;;;15.85;;
75890;SDS011;64571;47.512;19.054;2024-03-02T17:23:40;32.25;;;15.65;;
75890;SDS011;64571;47.512;19.054;2024-03-02T17:26:43;30.88;;;15.38;;
75890;SDS011;64571;47.512;19.054;2024-03-02T17:29:46;33.90;;;16.33;;
75890;SDS011;64571;47.512;19.054;2024-03-02T17:32:48;35.37;;;17.20;;
75890;SDS011;64571;47.512;19.054;2024-03-02T17:35:51;31.73;;;15.55;;
75890;SDS011;64571;47.512;19.054;2024-03-02T17:38:55;35.25;;;15.80;;
75890;SDS011;64571;47.512;19.054;2024-03-02T17:41:58;27.42;;;14.93;;
75890;SDS011;64571;47.512;19.054;2024-03-02T17:45:01;26.00;;;13.90;;
75890;SDS011;64571;47.512;19.054;2024-03-02T17:48:04;29.57;;;14.33;;
75890;SDS011;64571;47.512;19.054;2024-03-02T17:51:07;28.92;;;15.00;;